createdAt,value
2023-02-07T00:00:21.404Z,16.92
2023-02-07T00:02:49.263Z,14.45
2023-02-07T00:05:17.907Z,15.10
2023-02-07T00:07:44.464Z,20.67
2023-02-07T00:10:11.136Z,21.58
2023-02-07T00:12:37.797Z,26.35
2023-02-07T00:15:04.716Z,30.02
2023-02-07T00:17:31.457Z,24.33
2023-02-07T00:19:58.050Z,25.85
2023-02-07T00:22:24.685Z,25.88
2023-02-07T00:24:51.219Z,30.75
2023-02-07T00:27:17.925Z,32.35
2023-02-07T00:29:45.151Z,28.08
2023-02-07T00:32:11.791Z,26.38
2023-02-07T00:34:38.442Z,26.27
2023-02-07T00:37:05.616Z,24.73
2023-02-07T00:39:32.344Z,30.05
2023-02-07T00:41:59.022Z,27.00
2023-02-07T00:44:25.580Z,26.55
2023-02-07T00:46:52.225Z,26.60
2023-02-07T00:49:18.852Z,24.38
2023-02-07T00:51:45.407Z,24.70
2023-02-07T00:54:13.279Z,20.58
2023-02-07T00:56:39.946Z,30.58
2023-02-07T00:59:07.072Z,23.65
2023-02-07T01:01:35.508Z,25.13
2023-02-07T01:04:02.095Z,23.17
2023-02-07T01:06:33.470Z,22.02
2023-02-07T01:09:02.006Z,27.13
2023-02-07T01:11:29.520Z,29.23
2023-02-07T01:13:59.319Z,23.00
2023-02-07T01:16:29.254Z,24.33
2023-02-07T01:18:56.810Z,20.73
2023-02-07T01:21:26.341Z,21.50
2023-02-07T01:23:56.692Z,22.52
2023-02-07T01:26:24.922Z,19.42
2023-02-07T01:28:51.654Z,23.33
2023-02-07T01:31:18.480Z,20.20
2023-02-07T01:33:45.126Z,21.08
2023-02-07T01:36:15.024Z,23.10
2023-02-07T01:38:42.864Z,25.42
2023-02-07T01:41:10.668Z,18.45
2023-02-07T01:43:58.288Z,24.95
2023-02-07T01:46:25.616Z,21.50
2023-02-07T01:48:55.537Z,19.67
2023-02-07T01:51:23.432Z,23.65
2023-02-07T01:53:53.652Z,20.67
2023-02-07T01:56:31.278Z,27.05
2023-02-07T01:59:02.317Z,29.40
2023-02-07T02:01:28.899Z,20.42
2023-02-07T02:03:56.486Z,15.93
2023-02-07T02:06:27.322Z,17.33
2023-02-07T02:08:57.991Z,19.85
2023-02-07T02:12:06.124Z,36.97
2023-02-07T02:14:49.708Z,23.40
2023-02-07T02:17:25.111Z,45.75
2023-02-07T02:20:28.617Z,16.00
2023-02-07T02:23:09.350Z,11.70
2023-02-07T02:25:41.587Z,12.60
2023-02-07T02:28:33.365Z,13.77
2023-02-07T02:31:26.659Z,15.63
2023-02-07T02:34:13.631Z,19.58
2023-02-07T02:36:52.591Z,17.83
2023-02-07T02:39:46.479Z,30.30
2023-02-07T02:42:36.006Z,23.20
2023-02-07T02:45:04.572Z,22.35
2023-02-07T02:47:32.494Z,23.23
2023-02-07T02:50:00.178Z,29.98
2023-02-07T02:52:44.592Z,27.23
2023-02-07T02:55:18.071Z,30.52
2023-02-07T02:57:52.315Z,24.40
2023-02-07T03:00:30.964Z,23.73
2023-02-07T03:03:31.735Z,23.27
2023-02-07T03:06:08.311Z,24.17
2023-02-07T03:08:54.077Z,24.58
2023-02-07T03:11:23.762Z,25.63
2023-02-07T03:14:12.885Z,27.67
2023-02-07T03:16:48.415Z,25.92
2023-02-07T03:19:24.028Z,25.88
2023-02-07T03:22:10.362Z,32.90
2023-02-07T03:24:51.491Z,30.50
2023-02-07T03:27:21.403Z,30.88
2023-02-07T03:29:51.946Z,25.70
2023-02-07T03:32:20.767Z,23.63
2023-02-07T03:34:56.115Z,26.52
2023-02-07T03:39:56.585Z,24.60
2023-02-07T03:42:37.160Z,25.73
2023-02-07T03:45:07.822Z,28.00
2023-02-07T03:47:34.459Z,46.83
2023-02-07T03:50:01.000Z,22.80
2023-02-07T03:52:27.542Z,26.52
2023-02-07T03:54:54.062Z,29.55
2023-02-07T03:57:20.719Z,27.35
2023-02-07T03:59:47.287Z,22.73
2023-02-07T04:02:13.837Z,31.35
2023-02-07T04:04:40.551Z,21.50
2023-02-07T04:07:07.234Z,18.98
2023-02-07T04:09:33.776Z,26.05
2023-02-07T04:12:00.300Z,24.58
2023-02-07T04:14:27.055Z,24.80
2023-02-07T04:16:53.570Z,26.92
2023-02-07T04:19:20.140Z,25.30
2023-02-07T04:21:47.273Z,22.73
2023-02-07T04:24:14.268Z,28.67
2023-02-07T04:26:40.792Z,31.77
2023-02-07T04:29:07.342Z,30.33
2023-02-07T04:31:34.069Z,27.85
2023-02-07T04:34:00.666Z,30.48
2023-02-07T04:36:29.842Z,35.38
2023-02-07T04:38:56.404Z,35.80
2023-02-07T04:41:23.495Z,31.52
2023-02-07T04:43:50.534Z,40.67
2023-02-07T04:46:17.068Z,43.38
2023-02-07T04:48:43.615Z,42.50
2023-02-07T04:51:10.244Z,49.22
2023-02-07T04:53:36.750Z,47.78
2023-02-07T04:56:03.353Z,43.50
2023-02-07T04:58:29.833Z,48.05
2023-02-07T05:00:56.340Z,49.65
2023-02-07T05:03:23.024Z,46.90
2023-02-07T05:05:49.781Z,50.67
2023-02-07T05:08:16.313Z,49.17
2023-02-07T05:10:42.873Z,50.67
2023-02-07T05:13:09.448Z,39.97
2023-02-07T05:15:38.269Z,40.05
2023-02-07T05:18:05.731Z,41.95
2023-02-07T05:20:32.540Z,39.35
2023-02-07T05:22:59.145Z,43.25
2023-02-07T05:25:25.642Z,33.75
2023-02-07T05:27:52.212Z,47.00
2023-02-07T05:30:19.253Z,35.03
2023-02-07T05:33:03.804Z,37.58
2023-02-07T05:35:38.904Z,34.03
2023-02-07T05:38:08.724Z,35.33
2023-02-07T05:40:36.998Z,43.33
2023-02-07T05:43:03.631Z,64.43
2023-02-07T05:45:30.409Z,29.95
2023-02-07T05:47:57.083Z,33.20
2023-02-07T05:50:24.155Z,30.80
2023-02-07T05:53:03.779Z,31.50
2023-02-07T05:55:30.446Z,30.20
2023-02-07T05:57:57.417Z,29.27
2023-02-07T06:00:24.557Z,31.02
2023-02-07T06:02:51.132Z,32.05
2023-02-07T06:05:20.388Z,36.53
2023-02-07T06:07:47.369Z,41.97
2023-02-07T06:10:14.857Z,37.17
2023-02-07T06:12:41.740Z,39.53
2023-02-07T06:15:08.957Z,36.90
2023-02-07T06:17:35.558Z,35.92
2023-02-07T06:20:02.126Z,39.30
2023-02-07T06:22:28.727Z,30.45
2023-02-07T06:24:55.255Z,36.30
2023-02-07T06:27:21.947Z,37.92
2023-02-07T06:29:48.480Z,33.35
2023-02-07T06:32:16.784Z,33.35
2023-02-07T06:34:43.253Z,26.30
2023-02-07T06:37:09.884Z,30.40
2023-02-07T06:39:36.450Z,29.67
2023-02-07T06:42:03.268Z,36.33
2023-02-07T06:44:29.794Z,36.10
2023-02-07T06:46:56.387Z,46.13
2023-02-07T06:49:22.882Z,31.50
2023-02-07T06:51:50.020Z,40.53
2023-02-07T06:54:17.022Z,34.33
2023-02-07T06:56:43.615Z,45.10
2023-02-07T06:59:10.369Z,39.15
2023-02-07T07:01:36.962Z,45.72
2023-02-07T07:04:03.844Z,51.95
2023-02-07T07:06:30.378Z,41.78
2023-02-07T07:08:56.906Z,52.85
2023-02-07T07:11:23.600Z,35.53
2023-02-07T07:13:50.197Z,80.25
2023-02-07T07:16:16.948Z,56.92
2023-02-07T07:18:43.826Z,73.00
2023-02-07T07:21:10.568Z,56.33
2023-02-07T07:23:37.260Z,33.53
2023-02-07T07:26:04.041Z,55.92
2023-02-07T07:28:30.770Z,51.38
2023-02-07T07:31:05.870Z,32.67
2023-02-07T07:33:33.318Z,32.90
2023-02-07T07:36:01.757Z,31.27
2023-02-07T07:38:28.500Z,40.28
2023-02-07T07:40:55.190Z,29.08
2023-02-07T07:43:21.959Z,29.85
2023-02-07T07:45:57.264Z,30.77
2023-02-07T07:48:24.876Z,28.50
2023-02-07T07:50:51.996Z,33.33
2023-02-07T07:53:19.472Z,29.50
2023-02-07T07:55:54.962Z,27.08
2023-02-07T07:58:22.837Z,34.60
2023-02-07T08:00:50.471Z,29.33
2023-02-07T08:03:19.374Z,31.52
2023-02-07T08:05:46.377Z,31.42
2023-02-07T08:08:14.654Z,29.17
2023-02-07T08:10:41.884Z,29.23
2023-02-07T08:13:09.170Z,30.52
2023-02-07T08:15:36.172Z,28.95
2023-02-07T08:18:03.185Z,29.83
2023-02-07T08:20:29.731Z,32.17
2023-02-07T08:22:58.154Z,32.05
2023-02-07T08:25:25.628Z,40.85
2023-02-07T08:27:52.891Z,31.25
2023-02-07T08:30:20.208Z,38.30
2023-02-07T08:32:47.012Z,30.60
2023-02-07T08:35:13.905Z,29.40
2023-02-07T08:37:40.588Z,30.77
2023-02-07T08:40:08.059Z,31.75
2023-02-07T08:42:34.660Z,32.20
2023-02-07T08:45:01.297Z,28.88
2023-02-07T08:47:27.954Z,33.63
2023-02-07T08:49:54.501Z,36.45
2023-02-07T08:52:21.086Z,36.05
2023-02-07T08:54:48.568Z,33.35
2023-02-07T08:57:15.783Z,31.20
2023-02-07T08:59:42.369Z,35.97
2023-02-07T09:02:11.732Z,33.92
2023-02-07T09:04:38.376Z,33.63
2023-02-07T09:07:05.090Z,31.42
2023-02-07T09:09:32.950Z,34.53
2023-02-07T09:11:59.527Z,31.95
2023-02-07T09:14:26.159Z,32.47
2023-02-07T09:16:52.823Z,34.10
2023-02-07T09:19:19.552Z,30.38
2023-02-07T09:21:46.404Z,32.20
2023-02-07T09:24:13.035Z,33.20
2023-02-07T09:26:40.072Z,29.45
2023-02-07T09:29:07.779Z,27.85
2023-02-07T09:31:34.665Z,27.58
2023-02-07T09:34:02.832Z,29.58
2023-02-07T09:36:30.691Z,28.35
2023-02-07T09:38:58.284Z,24.05
2023-02-07T09:41:39.494Z,26.75
2023-02-07T09:44:16.730Z,28.40
2023-02-07T09:47:01.863Z,27.35
2023-02-07T09:49:38.307Z,27.13
2023-02-07T09:52:11.677Z,27.00
2023-02-07T09:54:43.763Z,25.10
2023-02-07T09:57:16.400Z,24.42
2023-02-07T09:59:49.659Z,26.00
2023-02-07T10:02:34.279Z,23.15
2023-02-07T10:05:07.210Z,26.27
2023-02-07T10:07:37.871Z,26.45
2023-02-07T10:10:04.979Z,31.10
2023-02-07T10:12:47.505Z,23.98
2023-02-07T10:15:38.483Z,24.35
2023-02-07T10:18:30.546Z,22.95
2023-02-07T10:21:09.696Z,27.73
2023-02-07T10:24:05.664Z,24.33
2023-02-07T10:27:21.656Z,24.73
2023-02-07T10:29:59.268Z,21.98
2023-02-07T10:32:28.324Z,23.67
2023-02-07T10:35:03.829Z,23.63
2023-02-07T10:40:08.302Z,21.30
2023-02-07T10:42:37.790Z,21.95
2023-02-07T10:45:05.260Z,21.15
2023-02-07T10:47:36.175Z,20.63
2023-02-07T10:50:12.040Z,21.63
2023-02-07T10:52:47.305Z,21.42
2023-02-07T10:55:19.439Z,19.85
2023-02-07T10:58:01.455Z,23.70
2023-02-07T11:00:33.844Z,21.15
2023-02-07T11:03:20.990Z,21.77
2023-02-07T11:06:04.607Z,23.30
2023-02-07T11:08:33.884Z,18.88
2023-02-07T11:11:19.480Z,20.80
2023-02-07T11:13:49.887Z,22.17
2023-02-07T11:16:18.397Z,19.42
2023-02-07T11:19:06.906Z,19.35
2023-02-07T11:21:33.449Z,17.55
2023-02-07T11:24:11.846Z,22.38
2023-02-07T11:26:56.181Z,18.88
2023-02-07T11:29:24.591Z,15.93
2023-02-07T11:31:54.262Z,18.50
2023-02-07T11:34:44.554Z,14.63
2023-02-07T11:37:18.702Z,14.38
2023-02-07T11:39:45.887Z,15.05
2023-02-07T11:42:22.115Z,16.35
2023-02-07T11:44:50.671Z,13.73
2023-02-07T11:47:28.323Z,15.02
2023-02-07T11:50:00.410Z,18.65
2023-02-07T11:52:27.567Z,13.38
2023-02-07T11:54:58.991Z,15.07
2023-02-07T11:57:29.983Z,12.30
2023-02-07T12:00:30.128Z,12.88
2023-02-07T12:03:03.692Z,11.77
2023-02-07T12:05:41.220Z,13.20
2023-02-07T12:08:20.616Z,12.93
2023-02-07T12:10:54.902Z,13.82
2023-02-07T12:13:27.080Z,15.05
2023-02-07T12:16:02.349Z,13.75
2023-02-07T12:18:35.555Z,13.18
2023-02-07T12:21:09.951Z,15.40
2023-02-07T12:23:49.096Z,15.20
2023-02-07T12:26:22.795Z,15.82
2023-02-07T12:29:13.457Z,14.13
2023-02-07T12:31:56.350Z,12.27
2023-02-07T12:34:41.038Z,11.90
2023-02-07T12:37:21.911Z,13.18
2023-02-07T12:40:24.885Z,13.65
2023-02-07T12:42:58.012Z,11.07
2023-02-07T12:45:43.553Z,12.45
2023-02-07T12:48:12.992Z,12.52
2023-02-07T12:50:39.747Z,10.52
2023-02-07T12:53:25.447Z,11.18
2023-02-07T12:56:19.943Z,11.70
2023-02-07T12:59:45.119Z,10.68
2023-02-07T13:02:29.526Z,9.48
2023-02-07T13:05:21.258Z,9.80
2023-02-07T13:08:12.654Z,8.57
2023-02-07T13:10:42.170Z,10.48
2023-02-07T13:13:15.623Z,10.63
2023-02-07T13:16:11.140Z,11.75
2023-02-07T13:18:49.783Z,10.35
2023-02-07T13:21:50.518Z,9.68
2023-02-07T13:24:21.778Z,10.63
2023-02-07T13:26:54.398Z,10.13
2023-02-07T13:29:23.724Z,12.73
2023-02-07T13:31:57.240Z,10.07
2023-02-07T13:34:40.399Z,11.88
2023-02-07T13:37:17.157Z,11.15
2023-02-07T13:39:46.714Z,10.63
2023-02-07T13:42:20.785Z,13.10
2023-02-07T13:44:56.313Z,10.50
2023-02-07T13:47:31.773Z,11.10
2023-02-07T13:52:53.057Z,10.73
2023-02-07T13:55:32.503Z,11.80
2023-02-07T13:58:18.920Z,10.95
2023-02-07T14:00:51.580Z,12.70
2023-02-07T14:03:23.988Z,11.32
2023-02-07T14:05:52.341Z,9.30
2023-02-07T14:08:24.941Z,11.18
2023-02-07T14:10:54.751Z,11.15
2023-02-07T14:13:27.096Z,10.20
2023-02-07T14:16:13.007Z,11.05
2023-02-07T14:18:51.569Z,10.07
2023-02-07T14:21:21.205Z,10.27
2023-02-07T14:24:03.667Z,8.88
2023-02-07T14:26:39.381Z,8.77
2023-02-07T14:29:52.281Z,8.80
2023-02-07T14:32:28.973Z,8.32
2023-02-07T14:35:04.939Z,9.18
2023-02-07T14:37:53.641Z,9.88
2023-02-07T14:40:31.272Z,10.38
2023-02-07T14:43:06.137Z,8.55
2023-02-07T14:45:36.743Z,9.70
2023-02-07T14:48:36.670Z,8.45
2023-02-07T14:51:06.650Z,10.20
2023-02-07T14:53:33.250Z,7.95
2023-02-07T14:56:04.516Z,8.73
2023-02-07T14:58:54.207Z,8.40
2023-02-07T15:01:21.584Z,14.60
2023-02-07T15:04:01.057Z,10.95
2023-02-07T15:06:32.652Z,9.05
2023-02-07T15:09:01.224Z,11.70
2023-02-07T15:11:34.796Z,10.13
2023-02-07T15:14:07.314Z,9.85
2023-02-07T15:16:40.141Z,11.18
2023-02-07T15:19:21.934Z,9.25
2023-02-07T15:21:51.463Z,9.48
2023-02-07T15:24:50.561Z,10.55
2023-02-07T15:27:24.959Z,15.10
2023-02-07T15:29:55.743Z,9.75
2023-02-07T15:32:30.688Z,10.95
2023-02-07T15:34:58.646Z,9.52
2023-02-07T15:37:26.443Z,10.93
2023-02-07T15:39:54.981Z,11.57
2023-02-07T15:42:22.096Z,10.15
2023-02-07T15:44:52.755Z,9.88
2023-02-07T15:47:28.226Z,11.85
2023-02-07T15:52:36.096Z,12.18
2023-02-07T15:55:13.655Z,10.02
2023-02-07T15:57:44.793Z,10.55
2023-02-07T16:00:26.347Z,10.98
2023-02-07T16:02:58.153Z,10.23
2023-02-07T16:05:30.745Z,10.63
2023-02-07T16:07:58.670Z,9.73
2023-02-07T16:10:39.452Z,9.85
2023-02-07T16:13:19.684Z,11.40
2023-02-07T16:16:19.727Z,10.50
2023-02-07T16:18:48.265Z,9.90
2023-02-07T16:21:30.061Z,10.43
2023-02-07T16:24:08.512Z,10.52
2023-02-07T16:26:36.371Z,9.70
2023-02-07T16:29:06.328Z,8.13
2023-02-07T16:31:33.586Z,9.10
2023-02-07T16:34:00.139Z,8.95
2023-02-07T16:36:28.090Z,10.18
2023-02-07T16:38:54.608Z,10.75
2023-02-07T16:41:24.793Z,10.25
2023-02-07T16:43:51.496Z,11.13
2023-02-07T16:46:22.104Z,10.45
2023-02-07T16:48:48.708Z,9.82
2023-02-07T16:51:16.908Z,10.90
2023-02-07T16:53:43.815Z,9.85
2023-02-07T16:56:13.932Z,10.32
2023-02-07T16:58:40.618Z,11.25
2023-02-07T17:01:07.156Z,9.52
2023-02-07T17:03:33.781Z,10.52
2023-02-07T17:06:00.311Z,11.75
2023-02-07T17:08:28.971Z,10.82
2023-02-07T17:11:01.291Z,9.30
2023-02-07T17:13:28.032Z,9.20
2023-02-07T17:15:54.708Z,10.20
2023-02-07T17:18:21.506Z,11.80
2023-02-07T17:20:48.107Z,9.25
2023-02-07T17:23:14.968Z,9.70
2023-02-07T17:25:42.663Z,12.90
2023-02-07T17:28:17.351Z,9.07
2023-02-07T17:30:44.096Z,10.13
2023-02-07T17:33:11.336Z,11.88
2023-02-07T17:35:38.772Z,10.73
2023-02-07T17:38:06.141Z,9.00
2023-02-07T17:40:38.933Z,9.43
2023-02-07T17:43:06.941Z,10.60
2023-02-07T17:45:36.135Z,11.73
2023-02-07T17:48:03.912Z,16.23
2023-02-07T17:50:41.285Z,13.50
2023-02-07T17:53:09.726Z,12.43
2023-02-07T17:55:37.474Z,10.10
2023-02-07T17:58:04.478Z,12.25
2023-02-07T18:00:40.023Z,10.10
2023-02-07T18:03:07.898Z,11.32
2023-02-07T18:05:34.555Z,10.57
2023-02-07T18:08:01.152Z,9.20
2023-02-07T18:10:31.367Z,11.57
2023-02-07T18:12:58.401Z,10.02
2023-02-07T18:15:25.645Z,12.07
2023-02-07T18:17:53.113Z,10.38
2023-02-07T18:20:22.292Z,10.35
2023-02-07T18:22:55.411Z,14.48
2023-02-07T18:25:24.427Z,10.75
2023-02-07T18:27:52.764Z,12.00
2023-02-07T18:30:21.732Z,11.43
2023-02-07T18:32:48.410Z,14.40
2023-02-07T18:35:16.022Z,13.98
2023-02-07T18:37:42.620Z,11.68
2023-02-07T18:40:13.134Z,10.63
2023-02-07T18:42:39.751Z,10.57
2023-02-07T18:45:07.115Z,10.82
2023-02-07T18:47:33.759Z,12.90
2023-02-07T18:50:00.731Z,14.60
2023-02-07T18:52:27.576Z,15.27
2023-02-07T18:54:54.142Z,14.35
2023-02-07T18:57:24.580Z,15.98
2023-02-07T18:59:51.165Z,14.70
2023-02-07T19:02:17.868Z,15.55
2023-02-07T19:04:44.470Z,12.48
2023-02-07T19:07:15.947Z,13.57
2023-02-07T19:09:42.889Z,12.70
2023-02-07T19:12:10.840Z,13.88
2023-02-07T19:14:37.629Z,14.20
2023-02-07T19:17:04.290Z,12.82
2023-02-07T19:19:31.810Z,14.18
2023-02-07T19:21:58.811Z,14.82
2023-02-07T19:24:25.631Z,16.15
2023-02-07T19:26:55.935Z,14.55
2023-02-07T19:29:29.674Z,12.75
2023-02-07T19:32:02.407Z,11.80
2023-02-07T19:34:29.322Z,14.07
2023-02-07T19:36:55.930Z,13.63
2023-02-07T19:39:22.488Z,15.73
2023-02-07T19:41:49.401Z,15.68
2023-02-07T19:44:17.110Z,15.13
2023-02-07T19:46:44.300Z,14.85
2023-02-07T19:49:13.737Z,15.32
2023-02-07T19:51:40.795Z,18.38
2023-02-07T19:54:07.761Z,17.02
2023-02-07T19:56:36.761Z,13.50
2023-02-07T19:59:06.468Z,14.18
2023-02-07T20:01:35.345Z,17.20
2023-02-07T20:04:02.138Z,13.18
2023-02-07T20:06:32.868Z,16.40
2023-02-07T20:09:01.474Z,14.60
2023-02-07T20:11:28.614Z,14.25
2023-02-07T20:13:58.373Z,13.90
2023-02-07T20:16:26.253Z,14.18
2023-02-07T20:18:53.601Z,17.00
2023-02-07T20:21:23.256Z,19.55
2023-02-07T20:23:55.187Z,18.30
2023-02-07T20:26:24.580Z,16.58
2023-02-07T20:28:51.314Z,16.10
2023-02-07T20:31:20.778Z,20.13
2023-02-07T20:33:47.699Z,18.45
2023-02-07T20:36:16.276Z,19.83
2023-02-07T20:38:45.771Z,17.33
2023-02-07T20:41:29.736Z,18.30
2023-02-07T20:44:04.639Z,22.33
2023-02-07T20:46:33.159Z,20.52
2023-02-07T20:49:10.659Z,16.85
2023-02-07T20:51:38.020Z,21.50
2023-02-07T20:54:06.460Z,23.27
2023-02-07T20:56:34.414Z,16.33
2023-02-07T20:59:01.015Z,20.35
2023-02-07T21:01:30.133Z,18.60
2023-02-07T21:03:59.068Z,20.50
2023-02-07T21:06:26.760Z,22.98
2023-02-07T21:09:00.274Z,24.83
2023-02-07T21:11:45.622Z,21.73
2023-02-07T21:14:19.492Z,19.23
2023-02-07T21:16:46.472Z,20.83
2023-02-07T21:19:16.794Z,25.15
2023-02-07T21:21:46.710Z,24.27
2023-02-07T21:24:14.629Z,21.13
2023-02-07T21:26:41.594Z,24.77
2023-02-07T21:29:08.520Z,20.55
2023-02-07T21:31:36.197Z,19.33
2023-02-07T21:34:04.038Z,24.45
2023-02-07T21:36:33.908Z,24.75
2023-02-07T21:39:06.919Z,20.33
2023-02-07T21:41:36.253Z,23.88
2023-02-07T21:44:02.968Z,23.85
2023-02-07T21:46:32.759Z,22.70
2023-02-07T21:49:05.844Z,20.38
2023-02-07T21:51:34.569Z,18.80
2023-02-07T21:54:03.240Z,21.95
2023-02-07T21:56:34.923Z,17.58
2023-02-07T21:59:04.647Z,16.75
2023-02-07T22:01:32.691Z,17.50
2023-02-07T22:04:01.860Z,17.00
2023-02-07T22:06:29.853Z,19.92
2023-02-07T22:08:59.663Z,17.77
2023-02-07T22:11:31.204Z,17.42
2023-02-07T22:13:58.136Z,17.02
2023-02-07T22:16:26.226Z,15.60
2023-02-07T22:18:54.468Z,16.83
2023-02-07T22:21:23.702Z,18.48
2023-02-07T22:23:50.878Z,14.20
2023-02-07T22:26:20.470Z,16.80
2023-02-07T22:28:47.730Z,18.55
2023-02-07T22:31:17.421Z,19.27
2023-02-07T22:33:44.051Z,21.38
2023-02-07T22:36:19.491Z,13.45
2023-02-07T22:41:13.047Z,18.20
2023-02-07T22:43:40.560Z,14.85
2023-02-07T22:46:09.591Z,16.00
2023-02-07T22:48:36.212Z,16.05
2023-02-07T22:51:19.539Z,17.77
2023-02-07T22:53:46.935Z,16.10
2023-02-07T22:56:13.726Z,15.38
2023-02-07T22:58:41.002Z,16.83
2023-02-07T23:01:17.372Z,15.18
2023-02-07T23:03:43.997Z,18.85
2023-02-07T23:06:10.695Z,14.73
2023-02-07T23:08:37.371Z,14.40
2023-02-07T23:11:07.960Z,14.18
2023-02-07T23:13:34.777Z,16.88
2023-02-07T23:16:03.678Z,14.25
2023-02-07T23:18:30.440Z,15.63
2023-02-07T23:20:57.069Z,18.25
2023-02-07T23:23:24.173Z,14.82
2023-02-07T23:25:50.760Z,17.15
2023-02-07T23:28:17.436Z,17.95
2023-02-07T23:30:44.321Z,18.13
2023-02-07T23:33:11.136Z,14.02
2023-02-07T23:35:37.691Z,20.13
2023-02-07T23:38:04.526Z,14.32
2023-02-07T23:40:31.473Z,15.93
2023-02-07T23:42:58.035Z,16.73
2023-02-07T23:45:25.152Z,16.33
2023-02-07T23:47:51.754Z,19.10
2023-02-07T23:50:18.577Z,16.77
2023-02-07T23:52:45.327Z,16.13
2023-02-07T23:55:11.987Z,18.02
2023-02-07T23:57:38.633Z,15.98
